La Coruna, Spain
Current Conditions -  °F | °C
As of 10:00 AM on Monday 20 Oct 2014 (Local Time) from LECO Reporting Station
Clear Clear  
Wind Chill: 61°   Ceiling: Unl
Heat Index: 61°   Visibility: 6mi
Dew Point: 61°   Wind: 2mph
Humidity: 100%   Direction: NA
Pressure: 30.09"   Gusts: NA
Location:  43.37°N, 8.4°W
Report Text: LECO 200800Z VRB02KT CAVOK 16/16 Q1019 NOSIG
Loading
Personal Weather Stations






























Interactive Weather Map New forecast layout! Learn more

10-Day Weather Forecast

Advertisements
Track Severe Weather on mobile